Time;durP1;ratioP1;P1;durP2;ratioP2;P2;SDS_P1;SDS_P2;PMS_P1;PMS_P2;Temp;Humidity;BMP_temperature;BMP_pressure;BME280_temperature;BME280_humidity;BME280_pressure;Samples;Min_cycle;Max_cycle;Signal;HPM_P1;HPM_P2
2022/10/11 00:00:52;;;;;;;12.18;3.08;;;6.40;99.90;;;;;;5060438;28;20681;-73
2022/10/11 00:03:19;;;;;;;17.30;4.72;;;6.50;99.90;;;;;;5065749;28;20341;-73
2022/10/11 00:05:45;;;;;;;16.48;2.90;;;6.40;99.90;;;;;;5061035;28;20060;-73
2022/10/11 00:08:12;;;;;;;10.15;2.58;;;6.30;99.90;;;;;;5028542;28;20509;-73
2022/10/11 00:10:39;;;;;;;41.25;6.60;;;6.30;99.90;;;;;;5057841;28;20426;-74
2022/10/11 00:13:05;;;;;;;17.90;4.07;;;6.20;99.90;;;;;;5056773;28;20060;-73
2022/10/11 00:15:32;;;;;;;7.75;2.30;;;6.20;99.90;;;;;;5042670;28;20040;-72
2022/10/11 00:18:00;;;;;;;63.83;7.63;;;6.10;99.90;;;;;;5044612;28;20483;-73
2022/10/11 00:20:26;;;;;;;9.65;3.10;;;6.10;99.90;;;;;;5062701;28;20148;-74
2022/10/11 00:22:52;;;;;;;9.73;2.88;;;6.10;99.90;;;;;;5029759;28;20465;-73
2022/10/11 00:25:18;;;;;;;27.85;4.53;;;6.00;99.90;;;;;;5019402;28;20041;-73
2022/10/11 00:27:44;;;;;;;142.80;12.48;;;6.10;99.90;;;;;;5040141;28;20083;-73
2022/10/11 00:30:10;;;;;;;79.00;8.43;;;6.10;99.90;;;;;;5058835;28;20057;-73
2022/10/11 00:32:37;;;;;;;124.68;11.65;;;6.10;99.90;;;;;;5043877;28;20029;-73
2022/10/11 00:35:05;;;;;;;30.45;5.70;;;6.00;99.90;;;;;;5044357;28;20048;-73
2022/10/11 00:37:33;;;;;;;25.95;5.80;;;6.00;99.90;;;;;;5063251;28;20048;-73
2022/10/11 00:39:59;;;;;;;21.83;5.00;;;6.00;99.90;;;;;;5033780;28;20090;-73
2022/10/11 00:42:25;;;;;;;64.43;8.82;;;6.00;99.90;;;;;;5029821;28;20040;-73
2022/10/11 00:44:51;;;;;;;14.13;3.55;;;6.00;99.90;;;;;;5061442;28;20068;-73
2022/10/11 00:47:21;;;;;;;30.02;6.43;;;6.00;99.90;;;;;;5026806;28;20422;-73
2022/10/11 00:49:50;;;;;;;;;;;6.00;99.90;;;;;;5063763;28;20076;-73
2022/10/11 00:52:32;;;;;;;24.92;6.28;;;6.00;99.90;;;;;;5060704;28;20271;-73
2022/10/11 00:55:03;;;;;;;58.25;9.10;;;5.90;99.90;;;;;;5042950;28;20755;-73
2022/10/11 00:57:34;;;;;;;14.82;3.90;;;6.00;99.90;;;;;;5051018;28;20040;-73
2022/10/11 01:00:00;;;;;;;43.95;7.03;;;5.90;99.90;;;;;;5062052;28;20064;-73
2022/10/11 01:02:29;;;;;;;29.15;6.85;;;6.00;99.90;;;;;;5045051;28;20819;-73
2022/10/11 01:04:54;;;;;;;32.60;7.18;;;5.90;99.90;;;;;;5048280;28;20210;-72
2022/10/11 01:07:20;;;;;;;14.00;3.88;;;5.90;99.90;;;;;;5062256;28;20547;-73
2022/10/11 01:09:46;;;;;;;54.95;7.57;;;5.90;99.90;;;;;;5029110;28;20040;-73
2022/10/11 01:12:22;;;;;;;23.42;6.18;;;5.90;99.90;;;;;;5045828;28;20036;-73
2022/10/11 01:15:24;;;;;;;56.75;7.03;;;5.90;99.90;;;;;;5039014;28;20127;-73
2022/10/11 01:18:03;;;;;;;126.43;12.05;;;5.90;99.90;;;;;;5059005;28;20055;-75
2022/10/11 01:20:53;;;;;;;27.95;4.60;;;5.80;99.90;;;;;;5063819;28;20531;-75
2022/10/11 01:23:37;;;;;;;10.70;3.08;;;5.80;99.90;;;;;;5060857;28;20052;-73
2022/10/11 01:26:21;;;;;;;21.13;5.35;;;5.80;99.90;;;;;;5053750;28;20137;-73
2022/10/11 01:29:17;;;;;;;11.88;3.92;;;5.80;99.90;;;;;;5063387;28;20068;-73
2022/10/11 01:32:02;;;;;;;54.92;7.18;;;5.80;99.90;;;;;;5077342;28;20052;-73
2022/10/11 01:34:54;;;;;;;11.15;2.97;;;5.80;99.90;;;;;;5043182;28;20059;-73
2022/10/11 01:37:30;;;;;;;31.52;4.35;;;5.80;99.90;;;;;;5059610;28;20055;-73
2022/10/11 01:40:38;;;;;;;17.25;4.20;;;5.70;99.90;;;;;;5061337;28;20072;-72
2022/10/11 01:43:04;;;;;;;21.83;5.90;;;5.70;99.90;;;;;;5023920;28;20042;-72
2022/10/11 01:45:33;;;;;;;30.75;5.40;;;5.70;99.90;;;;;;5040744;28;20910;-73
2022/10/11 01:48:08;;;;;;;15.88;3.60;;;5.70;99.90;;;;;;5055683;28;20071;-72
2022/10/11 01:50:39;;;;;;;78.93;8.15;;;5.70;99.90;;;;;;5077182;28;20110;-73
2022/10/11 01:53:29;;;;;;;31.10;4.75;;;5.70;99.90;;;;;;5077077;28;20097;-72
2022/10/11 01:56:17;;;;;;;42.20;7.10;;;5.70;99.90;;;;;;5059190;28;20048;-73
2022/10/11 01:58:52;;;;;;;22.05;4.78;;;5.70;99.90;;;;;;5061530;28;20618;-69
2022/10/11 02:01:38;;;;;;;8.30;2.70;;;5.70;99.90;;;;;;5056864;28;20059;-69
2022/10/11 02:04:12;;;;;;;24.88;5.47;;;5.70;99.90;;;;;;5055348;28;20045;-69
2022/10/11 02:06:59;;;;;;;13.63;3.38;;;5.70;99.90;;;;;;5059191;28;20126;-69
2022/10/11 02:10:05;;;;;;;10.35;3.10;;;5.70;99.90;;;;;;5060016;28;20059;-68
2022/10/11 02:12:40;;;;;;;14.57;3.47;;;5.70;99.90;;;;;;5014300;28;20064;-68
2022/10/11 02:15:09;;;;;;;13.90;3.42;;;5.60;99.90;;;;;;5040569;28;20060;-68
2022/10/11 02:17:40;;;;;;;12.07;3.70;;;5.60;99.90;;;;;;5060760;28;20127;-69
2022/10/11 02:20:11;;;;;;;14.93;3.92;;;5.70;99.90;;;;;;5052594;28;20053;-68
2022/10/11 02:22:42;;;;;;;9.30;2.42;;;5.70;99.90;;;;;;5061119;28;20048;-69
2022/10/11 02:25:12;;;;;;;11.80;2.92;;;5.70;99.90;;;;;;5055837;28;20486;-69
2022/10/11 02:27:41;;;;;;;41.05;6.18;;;5.70;99.90;;;;;;5043418;28;20045;-69
2022/10/11 02:30:08;;;;;;;29.23;4.80;;;5.70;99.90;;;;;;5060631;28;20406;-68
2022/10/11 02:32:38;;;;;;;9.98;2.90;;;5.60;99.90;;;;;;5059296;28;20127;-75
2022/10/11 02:35:05;;;;;;;35.63;5.82;;;5.60;99.90;;;;;;5043037;28;20091;-75
2022/10/11 02:37:55;;;;;;;40.95;6.45;;;5.60;99.90;;;;;;5061679;28;20128;-73
2022/10/11 02:40:31;;;;;;;46.83;6.20;;;5.50;99.90;;;;;;5060309;28;20498;-73
2022/10/11 02:43:05;;;;;;;29.77;4.85;;;5.50;99.90;;;;;;5059113;28;20119;-75
2022/10/11 02:45:38;;;;;;;15.20;2.97;;;5.40;99.90;;;;;;5063529;28;20123;-75
2022/10/11 02:48:06;;;;;;;8.40;2.40;;;5.40;99.90;;;;;;5057351;28;20032;-75
2022/10/11 02:50:32;;;;;;;7.78;2.10;;;5.40;99.90;;;;;;5043730;28;20125;-74
2022/10/11 02:52:58;;;;;;;25.17;5.13;;;5.40;99.90;;;;;;5044407;28;20509;-72
2022/10/11 02:55:23;;;;;;;24.00;4.97;;;5.40;99.90;;;;;;5060413;28;20052;-73
2022/10/11 02:57:49;;;;;;;52.33;7.25;;;5.30;99.90;;;;;;5057960;28;20059;-73
2022/10/11 03:00:15;;;;;;;13.40;3.80;;;5.40;99.90;;;;;;5026067;28;20503;-72
2022/10/11 03:02:41;;;;;;;13.52;3.50;;;5.30;99.90;;;;;;5042823;28;20717;-72
2022/10/11 03:05:07;;;;;;;8.10;2.72;;;5.40;99.90;;;;;;5043906;28;20040;-69
2022/10/11 03:07:33;;;;;;;6.80;2.03;;;5.40;99.90;;;;;;5059987;28;20067;-69
2022/10/11 03:09:59;;;;;;;7.97;2.30;;;5.40;99.90;;;;;;5058053;28;20483;-68
2022/10/11 03:12:24;;;;;;;38.88;5.57;;;5.40;99.90;;;;;;5058098;28;20403;-73
2022/10/11 03:14:51;;;;;;;110.78;10.75;;;5.40;99.90;;;;;;5057743;28;20029;-72
2022/10/11 03:17:17;;;;;;;58.35;7.82;;;5.40;99.90;;;;;;5044296;28;20041;-73
2022/10/11 03:19:43;;;;;;;69.53;8.15;;;5.30;99.90;;;;;;5059129;28;20036;-72
2022/10/11 03:22:09;;;;;;;9.23;2.70;;;5.30;99.90;;;;;;5054674;28;20048;-72
2022/10/11 03:24:34;;;;;;;12.63;2.95;;;5.30;99.90;;;;;;5058545;28;20037;-73
2022/10/11 03:27:00;;;;;;;10.27;2.72;;;5.30;99.90;;;;;;5061334;28;20095;-72
2022/10/11 03:29:26;;;;;;;8.32;2.33;;;5.30;99.90;;;;;;5038051;28;20076;-73
2022/10/11 03:31:52;;;;;;;7.65;2.70;;;5.30;99.90;;;;;;5060293;28;20056;-73
2022/10/11 03:34:17;;;;;;;9.23;2.70;;;5.40;99.90;;;;;;5027277;28;20110;-73
2022/10/11 03:36:43;;;;;;;7.22;2.38;;;5.40;99.90;;;;;;5046649;28;20398;-73
2022/10/11 03:39:09;;;;;;;22.02;3.25;;;5.40;99.90;;;;;;5043621;28;20986;-73
2022/10/11 03:41:34;;;;;;;28.95;4.60;;;5.30;99.90;;;;;;5066767;28;20044;-73
2022/10/11 03:44:00;;;;;;;79.65;8.27;;;5.30;99.90;;;;;;5030281;28;20131;-72
2022/10/11 03:46:26;;;;;;;27.60;5.25;;;5.20;99.90;;;;;;5047741;28;20946;-75
2022/10/11 03:48:52;;;;;;;8.40;2.58;;;5.10;99.90;;;;;;5043200;28;20121;-75
2022/10/11 03:51:17;;;;;;;8.85;2.53;;;5.10;99.90;;;;;;5064041;28;20060;-75
2022/10/11 03:53:43;;;;;;;8.50;2.60;;;5.10;99.90;;;;;;5046644;28;20045;-73
2022/10/11 03:56:09;;;;;;;6.72;1.73;;;5.20;99.90;;;;;;5030801;28;20078;-73
2022/10/11 03:58:35;;;;;;;7.57;1.95;;;5.20;99.90;;;;;;5042124;28;20080;-73
2022/10/11 04:01:01;;;;;;;7.85;2.25;;;5.20;99.90;;;;;;5041758;28;20047;-73
2022/10/11 04:03:26;;;;;;;26.27;3.80;;;5.20;99.90;;;;;;5060599;28;20067;-73
2022/10/11 04:05:52;;;;;;;47.10;4.38;;;5.20;99.90;;;;;;5063302;28;20044;-73
2022/10/11 04:08:18;;;;;;;7.28;2.20;;;5.10;99.90;;;;;;5047117;28;20442;-73
2022/10/11 04:10:44;;;;;;;6.88;1.60;;;5.00;99.90;;;;;;5050744;28;20123;-72
2022/10/11 04:13:10;;;;;;;4.82;1.88;;;5.00;99.90;;;;;;5068233;28;20044;-72
2022/10/11 04:15:37;;;;;;;5.00;1.60;;;5.00;99.90;;;;;;5045959;28;20086;-73
2022/10/11 04:18:05;;;;;;;6.65;1.75;;;5.00;99.90;;;;;;5052250;28;20135;-73
2022/10/11 04:20:31;;;;;;;6.57;2.20;;;5.00;99.90;;;;;;5051460;28;20044;-72
2022/10/11 04:22:56;;;;;;;5.55;2.00;;;5.00;99.90;;;;;;5048897;28;20060;-73
2022/10/11 04:25:22;;;;;;;4.72;1.73;;;5.00;99.90;;;;;;5026405;28;20372;-73
2022/10/11 04:27:48;;;;;;;5.90;1.95;;;5.00;99.90;;;;;;5062495;28;20059;-72
2022/10/11 04:30:15;;;;;;;5.57;1.77;;;5.10;99.90;;;;;;5037132;28;20044;-72
2022/10/11 04:32:41;;;;;;;4.68;1.50;;;5.00;99.90;;;;;;5065297;28;20029;-73
2022/10/11 04:35:08;;;;;;;8.18;2.15;;;5.10;99.90;;;;;;5044120;28;21444;-72
2022/10/11 04:37:34;;;;;;;6.72;1.98;;;5.10;99.90;;;;;;5042325;28;20036;-73
2022/10/11 04:39:59;;;;;;;11.05;2.67;;;5.10;99.90;;;;;;5030760;28;20052;-73
2022/10/11 04:42:25;;;;;;;12.32;2.83;;;5.20;99.90;;;;;;5042691;28;20052;-72
2022/10/11 04:44:51;;;;;;;10.18;2.63;;;5.00;99.90;;;;;;5065110;28;20063;-73
2022/10/11 04:47:18;;;;;;;13.65;2.80;;;5.10;99.90;;;;;;5045568;28;21100;-72
2022/10/11 04:49:43;;;;;;;9.27;2.55;;;5.10;99.90;;;;;;5061653;28;20366;-73
2022/10/11 04:52:09;;;;;;;20.60;4.38;;;5.10;99.90;;;;;;5070400;28;20967;-73
2022/10/11 04:54:35;;;;;;;10.23;2.92;;;5.00;99.90;;;;;;5033111;28;20040;-73
2022/10/11 04:57:01;;;;;;;13.45;3.38;;;5.00;99.90;;;;;;5056483;28;20597;-73
2022/10/11 04:59:27;;;;;;;8.77;2.35;;;5.10;99.90;;;;;;5057679;28;20052;-73
2022/10/11 05:01:53;;;;;;;9.27;2.65;;;5.10;99.90;;;;;;5052216;28;20091;-73
2022/10/11 05:04:18;;;;;;;7.13;2.30;;;5.10;99.90;;;;;;5043770;28;20040;-75
2022/10/11 05:06:44;;;;;;;8.02;2.38;;;5.20;99.90;;;;;;5045230;28;20044;-75
2022/10/11 05:09:10;;;;;;;13.70;3.78;;;5.10;99.90;;;;;;5044625;28;20060;-75
2022/10/11 05:11:36;;;;;;;12.50;2.58;;;5.20;99.90;;;;;;5055222;28;20041;-75
2022/10/11 05:14:01;;;;;;;12.57;2.95;;;5.20;99.90;;;;;;5040726;28;20044;-75
2022/10/11 05:16:28;;;;;;;8.38;2.47;;;5.10;99.90;;;;;;5044187;28;20487;-75
2022/10/11 05:18:57;;;;;;;11.48;3.20;;;5.20;99.90;;;;;;5047403;28;20048;-73
2022/10/11 05:21:25;;;;;;;6.70;2.60;;;5.30;99.90;;;;;;5057883;28;20487;-73
2022/10/11 05:23:54;;;;;;;9.30;2.72;;;5.30;99.90;;;;;;5042511;28;20072;-72
2022/10/11 05:26:21;;;;;;;9.95;2.70;;;5.30;99.90;;;;;;5056824;28;20957;-73
2022/10/11 05:28:47;;;;;;;9.15;2.45;;;5.20;99.90;;;;;;5055329;28;20044;-72
2022/10/11 05:31:13;;;;;;;7.10;2.40;;;5.30;99.90;;;;;;5039520;28;20037;-73
2022/10/11 05:33:39;;;;;;;11.60;2.90;;;5.30;99.90;;;;;;5035357;28;20495;-73
2022/10/11 05:36:06;;;;;;;11.38;3.20;;;5.30;99.90;;;;;;5022844;28;20053;-73
2022/10/11 05:38:32;;;;;;;14.02;3.55;;;5.30;99.90;;;;;;5023149;28;20537;-69
2022/10/11 05:40:59;;;;;;;11.15;3.42;;;5.30;99.90;;;;;;5042072;28;20674;-72
2022/10/11 05:43:26;;;;;;;8.98;3.20;;;5.30;99.90;;;;;;5036935;28;20044;-72
2022/10/11 05:45:51;;;;;;;13.27;3.22;;;5.30;99.90;;;;;;5056933;28;20075;-70
2022/10/11 05:48:20;;;;;;;7.70;2.63;;;5.40;99.90;;;;;;5044999;28;20072;-69
2022/10/11 05:50:45;;;;;;;20.48;4.70;;;5.40;99.90;;;;;;5037598;28;20502;-73
2022/10/11 05:53:12;;;;;;;10.32;3.42;;;5.40;99.90;;;;;;5057572;28;20048;-75
2022/10/11 05:55:39;;;;;;;11.20;3.25;;;5.40;99.90;;;;;;5058597;28;20041;-73
2022/10/11 05:58:06;;;;;;;12.88;3.78;;;5.50;99.90;;;;;;5057758;28;20060;-74
2022/10/11 06:00:36;;;;;;;12.80;4.13;;;5.40;99.90;;;;;;5058707;28;20044;-73
2022/10/11 06:03:03;;;;;;;5.43;2.60;;;5.40;99.90;;;;;;5041437;28;21501;-74
2022/10/11 06:05:29;;;;;;;13.80;3.13;;;5.50;99.90;;;;;;5059656;28;20064;-73
2022/10/11 06:07:57;;;;;;;11.32;3.47;;;5.50;99.90;;;;;;5041411;28;20110;-73
2022/10/11 06:10:22;;;;;;;13.25;3.80;;;5.50;99.90;;;;;;5024906;28;20583;-74
2022/10/11 06:12:48;;;;;;;9.30;3.40;;;5.50;99.90;;;;;;5035131;28;20047;-74
2022/10/11 06:15:14;;;;;;;11.93;3.60;;;5.50;99.90;;;;;;5053171;28;20445;-73
2022/10/11 06:17:40;;;;;;;18.33;4.38;;;5.60;99.90;;;;;;5052202;28;20079;-73
2022/10/11 06:20:07;;;;;;;22.13;5.82;;;5.60;99.90;;;;;;5041518;28;20053;-74
2022/10/11 06:22:33;;;;;;;8.23;3.33;;;5.60;99.90;;;;;;5041501;28;20035;-75
2022/10/11 06:24:59;;;;;;;12.75;3.78;;;5.60;99.90;;;;;;5024931;28;20391;-74
2022/10/11 06:27:24;;;;;;;12.32;3.97;;;5.60;99.90;;;;;;5046217;28;20056;-75
2022/10/11 06:29:50;;;;;;;16.30;5.10;;;5.60;99.90;;;;;;5042998;28;20055;-74
2022/10/11 06:32:16;;;;;;;16.17;4.35;;;5.60;99.90;;;;;;5043363;28;20445;-74
2022/10/11 06:34:42;;;;;;;12.40;4.50;;;5.70;99.90;;;;;;5055087;28;20449;-75
2022/10/11 06:37:07;;;;;;;16.58;5.75;;;5.70;99.90;;;;;;5051508;28;20076;-75
2022/10/11 06:39:33;;;;;;;18.27;6.38;;;5.70;99.90;;;;;;5044201;28;20090;-75
2022/10/11 06:42:00;;;;;;;11.55;4.75;;;5.80;99.90;;;;;;5057243;28;20064;-75
2022/10/11 06:44:26;;;;;;;16.05;5.20;;;5.80;99.90;;;;;;5041127;28;20052;-75
2022/10/11 06:46:52;;;;;;;13.43;5.25;;;5.80;99.90;;;;;;5038173;28;20068;-74
2022/10/11 06:49:18;;;;;;;15.57;5.80;;;5.90;99.90;;;;;;5023723;28;20071;-75
2022/10/11 06:51:43;;;;;;;20.00;6.63;;;5.90;99.90;;;;;;5075757;28;20507;-75
2022/10/11 06:54:09;;;;;;;10.55;5.03;;;6.00;99.90;;;;;;5057337;28;20048;-74
2022/10/11 06:56:35;;;;;;;19.77;6.72;;;6.00;99.90;;;;;;5027809;28;20059;-74
2022/10/11 06:59:02;;;;;;;22.80;7.85;;;6.00;99.90;;;;;;5027538;28;20199;-74
2022/10/11 07:01:29;;;;;;;15.73;5.60;;;6.10;99.90;;;;;;5046152;28;20049;-75
2022/10/11 07:03:56;;;;;;;17.48;7.22;;;6.10;99.90;;;;;;5042284;28;20041;-74
2022/10/11 07:06:25;;;;;;;14.20;5.45;;;6.20;99.90;;;;;;5046182;28;20067;-75
2022/10/11 07:08:52;;;;;;;11.95;5.50;;;6.20;99.90;;;;;;5065154;28;20043;-74
2022/10/11 07:11:28;;;;;;;18.38;7.40;;;6.20;99.90;;;;;;5042818;28;20057;-74
2022/10/11 07:14:01;;;;;;;13.48;5.55;;;6.30;99.90;;;;;;5043802;28;20248;-74
2022/10/11 07:16:27;;;;;;;12.15;5.85;;;6.30;99.90;;;;;;5066113;28;20048;-75
2022/10/11 07:18:56;;;;;;;16.42;5.60;;;6.40;99.90;;;;;;5060496;28;20041;-74
2022/10/11 07:21:22;;;;;;;15.15;5.45;;;6.50;99.90;;;;;;5064490;28;20059;-75
2022/10/11 07:23:48;;;;;;;16.73;7.18;;;6.40;99.90;;;;;;5061691;28;20040;-75
2022/10/11 07:26:14;;;;;;;13.05;7.40;;;6.50;99.90;;;;;;5046635;28;20057;-74
2022/10/11 07:28:40;;;;;;;15.18;8.75;;;6.60;99.90;;;;;;5059502;28;20094;-75
2022/10/11 07:31:09;;;;;;;22.02;13.32;;;6.60;99.90;;;;;;5079004;28;20041;-75
2022/10/11 07:33:34;;;;;;;22.20;16.73;;;6.70;99.90;;;;;;5076494;28;20454;-75
2022/10/11 07:36:00;;;;;;;18.42;14.13;;;6.70;99.90;;;;;;5045545;28;20059;-75
2022/10/11 07:38:27;;;;;;;21.88;16.65;;;6.80;99.90;;;;;;5046230;28;20077;-74
2022/10/11 07:40:52;;;;;;;20.38;12.55;;;6.90;99.90;;;;;;5047502;28;20124;-74
2022/10/11 07:43:18;;;;;;;16.90;9.73;;;7.00;99.90;;;;;;5060912;28;20127;-74
2022/10/11 07:45:47;;;;;;;16.60;8.55;;;7.10;99.90;;;;;;5044704;28;20124;-74
2022/10/11 07:48:13;;;;;;;14.77;7.28;;;7.10;99.90;;;;;;5045832;28;20044;-74
2022/10/11 07:50:38;;;;;;;19.45;7.82;;;7.30;99.90;;;;;;5029281;28;20045;-74
2022/10/11 07:53:05;;;;;;;21.73;10.57;;;7.50;99.90;;;;;;5061903;28;20473;-74
2022/10/11 07:55:38;;;;;;;22.27;10.10;;;7.60;99.90;;;;;;5060039;28;20048;-74
2022/10/11 07:58:07;;;;;;;18.65;8.80;;;7.80;99.90;;;;;;5062000;28;20064;-74
2022/10/11 08:00:33;;;;;;;15.65;7.00;;;8.00;99.90;;;;;;5058739;28;20032;-75
2022/10/11 08:03:02;;;;;;;15.15;6.25;;;8.30;99.90;;;;;;5046510;28;20135;-75
2022/10/11 08:05:28;;;;;;;15.40;5.75;;;8.50;99.90;;;;;;5060277;28;20045;-75
2022/10/11 08:07:55;;;;;;;15.68;5.28;;;8.70;99.90;;;;;;5046386;28;20036;-69
2022/10/11 08:10:20;;;;;;;11.77;4.82;;;8.90;99.90;;;;;;5064731;28;20105;-69
2022/10/11 08:12:47;;;;;;;12.95;4.75;;;9.20;99.90;;;;;;5007563;28;20033;-69
2022/10/11 08:15:13;;;;;;;14.43;4.85;;;9.30;99.90;;;;;;5044363;28;20032;-70
2022/10/11 08:17:38;;;;;;;12.18;4.75;;;9.50;99.90;;;;;;5030602;28;20082;-70
2022/10/11 08:20:05;;;;;;;15.77;5.32;;;9.70;99.90;;;;;;5047483;28;20131;-69
2022/10/11 08:22:31;;;;;;;15.32;4.00;;;9.90;99.90;;;;;;5058972;28;20037;-69
2022/10/11 08:24:56;;;;;;;11.13;3.63;;;10.00;99.90;;;;;;5062929;28;20639;-70
2022/10/11 08:27:22;;;;;;;13.98;4.38;;;10.20;99.90;;;;;;5059383;28;20056;-70
2022/10/11 08:29:48;;;;;;;15.13;4.68;;;10.30;99.90;;;;;;5044521;28;20079;-70
2022/10/11 08:32:14;;;;;;;12.32;3.90;;;10.40;99.90;;;;;;5028204;28;20727;-69
2022/10/11 08:34:39;;;;;;;14.38;4.40;;;10.60;99.90;;;;;;5046232;28;20051;-69
2022/10/11 08:37:05;;;;;;;11.10;3.85;;;10.70;99.90;;;;;;5058158;28;20346;-70
2022/10/11 08:39:31;;;;;;;13.38;4.63;;;10.80;99.90;;;;;;5063657;28;20407;-70
2022/10/11 08:42:03;;;;;;;11.57;3.95;;;10.90;99.90;;;;;;5044558;28;20394;-69
2022/10/11 08:44:52;;;;;;;12.98;4.18;;;11.00;99.90;;;;;;5046088;28;20162;-70
2022/10/11 08:47:32;;;;;;;12.82;3.58;;;11.10;99.90;;;;;;5057537;28;20407;-70
2022/10/11 08:49:59;;;;;;;13.50;3.80;;;11.20;99.90;;;;;;5061632;28;20055;-70
2022/10/11 08:52:38;;;;;;;11.57;3.13;;;11.20;99.90;;;;;;5045631;28;20076;-69
2022/10/11 08:55:06;;;;;;;14.43;4.05;;;11.30;99.90;;;;;;5056105;28;20109;-70
2022/10/11 08:57:36;;;;;;;14.43;3.50;;;11.20;99.90;;;;;;5047113;28;20040;-70
2022/10/11 09:00:11;;;;;;;16.17;3.70;;;11.30;99.90;;;;;;5061305;28;20681;-75
2022/10/11 09:02:51;;;;;;;9.80;3.22;;;11.30;99.90;;;;;;5059625;28;20049;-75
2022/10/11 09:05:17;;;;;;;;;;;11.40;99.90;;;;;;5060209;28;20056;-75
2022/10/11 09:08:11;;;;;;;12.88;3.13;;;11.30;99.90;;;;;;5058382;28;20267;-75
2022/10/11 09:10:58;;;;;;;13.50;3.65;;;11.30;99.90;;;;;;5060557;28;20044;-75
2022/10/11 09:13:45;;;;;;;14.37;3.40;;;11.40;99.90;;;;;;5046909;28;20056;-75
2022/10/11 09:16:48;;;;;;;8.43;2.40;;;11.50;99.90;;;;;;5044986;28;20049;-76
2022/10/11 09:20:01;;;;;;;12.55;3.10;;;11.60;99.90;;;;;;5057932;28;20153;-75
2022/10/11 09:23:09;;;;;;;12.65;3.50;;;11.60;99.90;;;;;;5027701;28;20086;-75
2022/10/11 09:25:48;;;;;;;10.63;2.72;;;11.70;99.90;;;;;;5059130;28;20533;-75
2022/10/11 09:28:36;;;;;;;12.25;3.05;;;11.80;99.90;;;;;;5061232;28;20056;-75
2022/10/11 09:31:02;;;;;;;12.95;3.40;;;11.90;99.90;;;;;;5062742;28;20045;-76
2022/10/11 09:33:34;;;;;;;12.60;3.33;;;11.90;99.90;;;;;;5060124;28;20252;-76
2022/10/11 09:36:11;;;;;;;10.60;2.83;;;12.00;99.90;;;;;;5062587;28;20056;-76
2022/10/11 09:38:58;;;;;;;11.30;2.95;;;12.10;99.90;;;;;;5043562;28;20037;-76
2022/10/11 09:41:41;;;;;;;10.98;2.50;;;12.30;99.90;;;;;;5042543;28;20059;-76
2022/10/11 09:44:17;;;;;;;12.73;2.92;;;12.40;99.90;;;;;;5062710;28;20074;-77
2022/10/11 09:46:44;;;;;;;10.50;3.28;;;12.40;99.90;;;;;;5040345;28;20048;-77
2022/10/11 09:49:17;;;;;;;13.80;2.83;;;12.50;99.90;;;;;;5042122;28;20036;-77
2022/10/11 09:51:49;;;;;;;11.65;2.95;;;12.60;99.90;;;;;;5044156;28;20036;-77
2022/10/11 09:54:19;;;;;;;15.18;2.78;;;12.70;99.90;;;;;;5058718;28;20044;-77
2022/10/11 09:56:45;;;;;;;15.90;3.40;;;12.80;99.90;;;;;;5043448;28;20045;-77
2022/10/11 09:59:34;;;;;;;9.13;2.97;;;12.80;99.90;;;;;;5054792;28;20411;-77
2022/10/11 10:02:12;;;;;;;13.30;2.70;;;12.90;99.90;;;;;;5040216;28;20048;-77
2022/10/11 10:05:16;;;;;;;11.73;2.88;;;13.00;99.90;;;;;;5059384;28;20260;-76
2022/10/11 10:08:02;;;;;;;15.40;3.67;;;13.00;99.90;;;;;;5003308;28;20037;-77
2022/10/11 10:10:30;;;;;;;10.52;3.22;;;13.00;99.90;;;;;;5053763;28;20049;-77
2022/10/11 10:12:58;;;;;;;12.35;3.00;;;13.10;99.90;;;;;;5044686;28;20041;-77
2022/10/11 10:15:30;;;;;;;11.45;2.97;;;13.10;99.90;;;;;;5056028;28;20090;-77
2022/10/11 10:17:57;;;;;;;11.52;3.30;;;13.20;99.90;;;;;;5044917;28;20036;-77
2022/10/11 10:20:32;;;;;;;11.18;3.03;;;13.30;99.90;;;;;;5056898;28;20053;-77
2022/10/11 10:23:07;;;;;;;14.45;3.03;;;13.30;99.90;;;;;;5070691;28;20051;-77
2022/10/11 10:25:38;;;;;;;10.80;2.92;;;13.40;99.90;;;;;;5077823;28;20045;-77
2022/10/11 10:28:18;;;;;;;10.35;2.88;;;13.40;99.90;;;;;;5024743;28;20052;-77
2022/10/11 10:30:54;;;;;;;;;;;13.50;99.90;;;;;;5059701;28;20072;-76
2022/10/11 10:33:28;;;;;;;11.93;3.15;;;13.50;99.90;;;;;;5041625;28;19927;-77
2022/10/11 10:36:13;;;;;;;12.13;3.15;;;13.60;99.90;;;;;;5060159;28;20094;-77
2022/10/11 10:38:47;;;;;;;12.40;3.90;;;13.70;99.90;;;;;;5040956;28;20045;-77
2022/10/11 10:41:15;;;;;;;12.48;2.72;;;13.70;99.90;;;;;;5056050;28;20049;-77
2022/10/11 10:43:44;;;;;;;11.05;3.03;;;13.80;99.90;;;;;;5043669;28;20391;-77
2022/10/11 10:46:16;;;;;;;15.45;3.53;;;13.80;99.90;;;;;;5042633;28;20052;-77
2022/10/11 10:48:57;;;;;;;10.70;2.65;;;13.90;99.90;;;;;;5056992;28;20071;-78
2022/10/11 10:51:45;;;;;;;11.45;2.50;;;14.00;99.90;;;;;;5042777;28;20306;-77
2022/10/11 10:54:44;;;;;;;14.13;3.30;;;14.00;99.90;;;;;;5044388;28;20152;-77
2022/10/11 10:57:15;;;;;;;11.60;2.92;;;14.10;99.90;;;;;;5059959;28;20067;-78
2022/10/11 11:00:00;;;;;;;14.25;3.25;;;14.20;99.90;;;;;;5057773;28;20083;-77
2022/10/11 11:02:43;;;;;;;12.82;3.03;;;14.30;99.90;;;;;;5059559;28;20049;-78
2022/10/11 11:05:09;;;;;;;12.02;2.55;;;14.30;99.90;;;;;;5057102;28;20044;-71
2022/10/11 11:07:46;;;;;;;7.47;2.17;;;14.40;99.90;;;;;;5045548;28;20386;-71
2022/10/11 11:10:29;;;;;;;12.02;2.65;;;14.40;99.90;;;;;;5044491;28;20052;-72
2022/10/11 11:13:04;;;;;;;9.77;2.28;;;14.50;99.90;;;;;;5039648;28;20326;-71
2022/10/11 11:15:41;;;;;;;10.52;2.35;;;14.50;99.90;;;;;;5059204;28;20041;-78
2022/10/11 11:18:41;;;;;;;10.95;2.92;;;14.60;99.90;;;;;;5060607;28;20075;-78
2022/10/11 11:21:26;;;;;;;12.98;2.50;;;14.70;99.90;;;;;;5055575;28;20045;-78
2022/10/11 11:24:15;;;;;;;13.27;2.50;;;14.80;99.90;;;;;;5053076;28;20131;-77
2022/10/11 11:27:15;;;;;;;10.52;2.67;;;14.80;99.90;;;;;;5037474;28;20048;-79
2022/10/11 11:30:00;;;;;;;10.77;2.53;;;14.90;99.90;;;;;;5043601;28;20118;-77
2022/10/11 11:32:47;;;;;;;14.57;2.75;;;15.00;99.90;;;;;;5041937;28;20048;-77
2022/10/11 11:35:30;;;;;;;12.60;3.00;;;15.10;99.90;;;;;;5072844;28;20080;-79
2022/10/11 11:38:49;;;;;;;9.55;2.25;;;15.20;99.90;;;;;;5056279;28;20402;-79
2022/10/11 11:41:25;;;;;;;11.40;2.42;;;15.20;99.90;;;;;;5030417;28;20513;-78
2022/10/11 11:43:57;;;;;;;12.85;3.22;;;15.30;99.90;;;;;;5060309;28;20327;-78
2022/10/11 11:46:34;;;;;;;8.52;2.47;;;15.50;99.90;;;;;;5060257;28;20487;-79
2022/10/11 11:49:10;;;;;;;12.45;2.25;;;15.60;99.90;;;;;;5055271;28;20620;-72
2022/10/11 11:51:41;;;;;;;13.13;2.40;;;15.60;99.90;;;;;;5058013;28;20040;-73
2022/10/11 11:54:16;;;;;;;10.13;2.55;;;15.60;99.90;;;;;;5046354;28;20062;-72
2022/10/11 11:56:48;;;;;;;9.88;2.33;;;15.60;99.90;;;;;;5045696;28;20087;-72
2022/10/11 11:59:33;;;;;;;15.32;3.10;;;15.60;99.90;;;;;;5050353;28;20048;-73
2022/10/11 12:02:23;;;;;;;13.70;3.10;;;15.50;99.90;;;;;;5074694;28;20118;-73
2022/10/11 12:04:50;;;;;;;;;;;15.40;99.90;;;;;;5044890;28;20056;-73
2022/10/11 12:07:22;;;;;;;10.52;1.98;;;15.30;99.90;;;;;;5044657;28;19927;-72
2022/10/11 12:09:53;;;;;;;9.50;2.55;;;15.20;99.90;;;;;;5052874;28;20045;-73
2022/10/11 12:12:36;;;;;;;9.20;2.20;;;15.20;99.90;;;;;;5042324;28;20783;-72
2022/10/11 12:15:17;;;;;;;11.07;2.60;;;15.10;99.90;;;;;;5060941;28;20051;-72
2022/10/11 12:17:55;;;;;;;10.00;1.98;;;15.10;99.90;;;;;;5061011;28;20102;-72
2022/10/11 12:20:36;;;;;;;9.70;1.92;;;15.00;99.90;;;;;;5042417;28;20049;-71
2022/10/11 12:23:17;;;;;;;8.98;1.70;;;15.00;99.90;;;;;;5058623;28;20465;-77
2022/10/11 12:25:44;;;;;;;9.80;2.20;;;14.90;99.90;;;;;;5042615;28;20064;-77
2022/10/11 12:28:41;;;;;;;11.73;2.40;;;14.90;99.90;;;;;;5043651;28;20048;-78
2022/10/11 12:31:29;;;;;;;8.85;2.08;;;14.80;99.90;;;;;;5062686;28;20175;-78
2022/10/11 12:34:01;;;;;;;10.68;2.58;;;14.70;99.90;;;;;;5062357;28;20732;-77
2022/10/11 12:36:49;;;;;;;9.55;2.08;;;14.70;99.90;;;;;;5041419;28;20048;-78
2022/10/11 12:39:18;;;;;;;11.88;2.72;;;14.60;99.90;;;;;;5062726;28;20504;-77
2022/10/11 12:41:49;;;;;;;11.98;2.42;;;14.50;99.90;;;;;;5061046;28;20059;-77
2022/10/11 12:44:26;;;;;;;10.52;2.53;;;14.50;99.90;;;;;;5047702;28;20055;-77
2022/10/11 12:46:52;;;;;;;7.35;1.52;;;14.50;99.90;;;;;;5060931;28;20132;-77
2022/10/11 12:49:31;;;;;;;8.98;1.92;;;14.60;99.90;;;;;;5047337;28;20490;-78
2022/10/11 12:51:59;;;;;;;13.18;2.45;;;14.70;99.90;;;;;;5060045;28;20651;-78
2022/10/11 12:55:02;;;;;;;9.65;2.40;;;14.80;99.90;;;;;;5044557;28;20057;-77
2022/10/11 12:57:34;;;;;;;8.50;1.88;;;14.90;99.90;;;;;;5046944;28;20064;-78
2022/10/11 13:00:19;;;;;;;10.63;2.47;;;15.00;99.90;;;;;;5042733;28;20060;-78
2022/10/11 13:02:46;;;;;;;8.98;2.05;;;15.10;99.90;;;;;;5046031;28;20072;-78
2022/10/11 13:05:41;;;;;;;9.95;2.60;;;15.20;99.90;;;;;;5061970;28;20067;-78
2022/10/11 13:08:14;;;;;;;11.02;2.83;;;15.30;99.90;;;;;;5059009;28;20495;-78
2022/10/11 13:10:44;;;;;;;11.20;1.95;;;15.30;99.90;;;;;;5045641;28;20507;-78